sensor_id;sensor_type;location;lat;lon;timestamp;temperature;humidity
23311;DHT22;11828;51.508;18.118;2023-02-24T00:02:11;25.90;31.20
23311;DHT22;11828;51.508;18.118;2023-02-24T00:04:39;25.90;31.30
23311;DHT22;11828;51.508;18.118;2023-02-24T00:07:08;25.80;31.30
23311;DHT22;11828;51.508;18.118;2023-02-24T00:09:35;25.70;31.40
23311;DHT22;11828;51.508;18.118;2023-02-24T00:12:06;25.70;31.50
23311;DHT22;11828;51.508;18.118;2023-02-24T00:14:36;25.70;31.50
23311;DHT22;11828;51.508;18.118;2023-02-24T00:17:05;25.50;31.70
23311;DHT22;11828;51.508;18.118;2023-02-24T00:19:34;25.50;31.80
23311;DHT22;11828;51.508;18.118;2023-02-24T00:22:02;25.60;31.80
23311;DHT22;11828;51.508;18.118;2023-02-24T00:24:29;25.60;31.70
23311;DHT22;11828;51.508;18.118;2023-02-24T00:26:58;25.60;31.70
23311;DHT22;11828;51.508;18.118;2023-02-24T00:29:27;25.60;31.60
23311;DHT22;11828;51.508;18.118;2023-02-24T00:31:55;25.70;31.70
23311;DHT22;11828;51.508;18.118;2023-02-24T00:34:27;25.70;31.60
23311;DHT22;11828;51.508;18.118;2023-02-24T00:36:58;25.70;32.30
23311;DHT22;11828;51.508;18.118;2023-02-24T00:39:26;25.70;31.60
23311;DHT22;11828;51.508;18.118;2023-02-24T00:41:58;25.70;31.70
23311;DHT22;11828;51.508;18.118;2023-02-24T00:44:54;25.80;31.80
23311;DHT22;11828;51.508;18.118;2023-02-24T00:47:20;25.70;31.60
23311;DHT22;11828;51.508;18.118;2023-02-24T00:49:47;25.70;31.70
23311;DHT22;11828;51.508;18.118;2023-02-24T00:52:17;25.70;31.80
23311;DHT22;11828;51.508;18.118;2023-02-24T00:54:46;25.60;31.70
23311;DHT22;11828;51.508;18.118;2023-02-24T00:57:14;25.60;32.00
23311;DHT22;11828;51.508;18.118;2023-02-24T00:59:45;25.60;32.10
23311;DHT22;11828;51.508;18.118;2023-02-24T01:02:16;25.60;32.40
23311;DHT22;11828;51.508;18.118;2023-02-24T01:04:42;25.50;32.40
23311;DHT22;11828;51.508;18.118;2023-02-24T01:07:10;25.50;32.50
23311;DHT22;11828;51.508;18.118;2023-02-24T01:09:39;25.40;32.60
23311;DHT22;11828;51.508;18.118;2023-02-24T01:12:08;25.50;32.80
23311;DHT22;11828;51.508;18.118;2023-02-24T01:14:54;25.50;32.90
23311;DHT22;11828;51.508;18.118;2023-02-24T01:17:21;25.50;32.90
23311;DHT22;11828;51.508;18.118;2023-02-24T01:19:47;25.50;33.00
23311;DHT22;11828;51.508;18.118;2023-02-24T01:22:17;25.40;33.10
23311;DHT22;11828;51.508;18.118;2023-02-24T01:24:44;25.40;33.30
23311;DHT22;11828;51.508;18.118;2023-02-24T01:27:12;25.40;33.20
23311;DHT22;11828;51.508;18.118;2023-02-24T01:29:39;25.50;33.40
23311;DHT22;11828;51.508;18.118;2023-02-24T01:32:06;25.40;33.30
23311;DHT22;11828;51.508;18.118;2023-02-24T01:34:37;25.40;33.40
23311;DHT22;11828;51.508;18.118;2023-02-24T01:37:04;25.40;33.40
23311;DHT22;11828;51.508;18.118;2023-02-24T01:39:30;25.40;33.50
23311;DHT22;11828;51.508;18.118;2023-02-24T01:41:57;25.40;33.60
23311;DHT22;11828;51.508;18.118;2023-02-24T01:46:58;25.10;34.20
23311;DHT22;11828;51.508;18.118;2023-02-24T01:49:44;25.00;34.20
23311;DHT22;11828;51.508;18.118;2023-02-24T01:52:17;24.90;34.50
23311;DHT22;11828;51.508;18.118;2023-02-24T01:54:59;24.80;34.70
23311;DHT22;11828;51.508;18.118;2023-02-24T01:57:31;24.70;34.90
23311;DHT22;11828;51.508;18.118;2023-02-24T01:59:59;24.60;35.20
23311;DHT22;11828;51.508;18.118;2023-02-24T02:02:35;24.60;35.50
23311;DHT22;11828;51.508;18.118;2023-02-24T02:05:08;24.50;35.50
23311;DHT22;11828;51.508;18.118;2023-02-24T02:07:37;24.40;35.70
23311;DHT22;11828;51.508;18.118;2023-02-24T02:10:05;24.50;35.90
23311;DHT22;11828;51.508;18.118;2023-02-24T02:12:35;24.50;36.00
23311;DHT22;11828;51.508;18.118;2023-02-24T02:15:14;24.60;36.00
23311;DHT22;11828;51.508;18.118;2023-02-24T02:18:21;24.50;36.00
23311;DHT22;11828;51.508;18.118;2023-02-24T02:38:26;24.70;36.20
23311;DHT22;11828;51.508;18.118;2023-02-24T02:41:33;24.70;36.20
23311;DHT22;11828;51.508;18.118;2023-02-24T02:45:00;24.80;36.60
23311;DHT22;11828;51.508;18.118;2023-02-24T02:47:29;24.70;36.40
23311;DHT22;11828;51.508;18.118;2023-02-24T02:55:55;24.70;36.50
23311;DHT22;11828;51.508;18.118;2023-02-24T02:58:29;24.60;36.70
23311;DHT22;11828;51.508;18.118;2023-02-24T03:00:59;24.50;37.00
23311;DHT22;11828;51.508;18.118;2023-02-24T03:03:52;24.50;36.90
23311;DHT22;11828;51.508;18.118;2023-02-24T03:06:39;24.50;37.20
23311;DHT22;11828;51.508;18.118;2023-02-24T03:09:27;24.40;37.00
23311;DHT22;11828;51.508;18.118;2023-02-24T03:12:05;24.30;37.00
23311;DHT22;11828;51.508;18.118;2023-02-24T03:14:37;24.40;37.00
23311;DHT22;11828;51.508;18.118;2023-02-24T03:17:18;24.50;37.00
23311;DHT22;11828;51.508;18.118;2023-02-24T03:19:50;24.60;36.90
23311;DHT22;11828;51.508;18.118;2023-02-24T03:22:29;24.70;36.70
23311;DHT22;11828;51.508;18.118;2023-02-24T03:25:01;24.70;36.50
23311;DHT22;11828;51.508;18.118;2023-02-24T03:27:41;24.70;36.50
23311;DHT22;11828;51.508;18.118;2023-02-24T03:30:18;24.70;36.60
23311;DHT22;11828;51.508;18.118;2023-02-24T03:32:54;24.70;36.70
23311;DHT22;11828;51.508;18.118;2023-02-24T03:35:28;24.70;36.70
23311;DHT22;11828;51.508;18.118;2023-02-24T03:37:57;24.70;36.50
23311;DHT22;11828;51.508;18.118;2023-02-24T03:40:24;24.80;36.40
23311;DHT22;11828;51.508;18.118;2023-02-24T03:43:06;24.90;36.30
23311;DHT22;11828;51.508;18.118;2023-02-24T03:45:39;24.80;36.20
23311;DHT22;11828;51.508;18.118;2023-02-24T03:48:07;24.80;36.00
23311;DHT22;11828;51.508;18.118;2023-02-24T03:50:35;24.80;35.90
23311;DHT22;11828;51.508;18.118;2023-02-24T03:53:24;24.70;36.00
23311;DHT22;11828;51.508;18.118;2023-02-24T03:56:37;24.70;36.20
23311;DHT22;11828;51.508;18.118;2023-02-24T03:59:22;24.60;36.40
23311;DHT22;11828;51.508;18.118;2023-02-24T04:02:11;24.50;36.30
23311;DHT22;11828;51.508;18.118;2023-02-24T04:10:14;24.40;36.30
23311;DHT22;11828;51.508;18.118;2023-02-24T04:12:57;24.50;37.00
23311;DHT22;11828;51.508;18.118;2023-02-24T04:15:31;24.40;36.40
23311;DHT22;11828;51.508;18.118;2023-02-24T04:18:06;24.40;36.30
23311;DHT22;11828;51.508;18.118;2023-02-24T04:20:36;24.50;36.40
23311;DHT22;11828;51.508;18.118;2023-02-24T04:23:12;24.50;36.30
23311;DHT22;11828;51.508;18.118;2023-02-24T04:25:44;24.30;36.20
23311;DHT22;11828;51.508;18.118;2023-02-24T04:28:13;24.30;36.40
23311;DHT22;11828;51.508;18.118;2023-02-24T04:30:42;24.30;36.50
23311;DHT22;11828;51.508;18.118;2023-02-24T04:33:11;24.30;36.60
23311;DHT22;11828;51.508;18.118;2023-02-24T04:35:37;24.20;36.60
23311;DHT22;11828;51.508;18.118;2023-02-24T04:38:05;24.30;36.70
23311;DHT22;11828;51.508;18.118;2023-02-24T04:40:31;24.20;36.70
23311;DHT22;11828;51.508;18.118;2023-02-24T04:42:58;24.30;36.80
23311;DHT22;11828;51.508;18.118;2023-02-24T04:45:26;24.20;36.70
23311;DHT22;11828;51.508;18.118;2023-02-24T04:47:57;24.10;36.70
23311;DHT22;11828;51.508;18.118;2023-02-24T04:50:32;24.10;37.00
23311;DHT22;11828;51.508;18.118;2023-02-24T04:53:14;24.10;37.20
23311;DHT22;11828;51.508;18.118;2023-02-24T04:55:43;24.10;37.20
23311;DHT22;11828;51.508;18.118;2023-02-24T04:58:16;24.30;37.20
23311;DHT22;11828;51.508;18.118;2023-02-24T05:00:45;24.30;37.00
23311;DHT22;11828;51.508;18.118;2023-02-24T05:03:14;24.40;37.00
23311;DHT22;11828;51.508;18.118;2023-02-24T05:06:00;24.30;36.90
23311;DHT22;11828;51.508;18.118;2023-02-24T05:08:28;24.30;37.20
23311;DHT22;11828;51.508;18.118;2023-02-24T05:10:56;24.30;37.80
23311;DHT22;11828;51.508;18.118;2023-02-24T05:13:25;24.40;37.00
23311;DHT22;11828;51.508;18.118;2023-02-24T05:15:55;24.50;37.00
23311;DHT22;11828;51.508;18.118;2023-02-24T05:18:23;24.50;37.00
23311;DHT22;11828;51.508;18.118;2023-02-24T05:20:52;24.50;36.80
23311;DHT22;11828;51.508;18.118;2023-02-24T05:23:43;24.50;36.80
23311;DHT22;11828;51.508;18.118;2023-02-24T05:26:13;24.60;36.80
23311;DHT22;11828;51.508;18.118;2023-02-24T05:28:43;24.60;36.80
23311;DHT22;11828;51.508;18.118;2023-02-24T05:31:16;24.60;36.70
23311;DHT22;11828;51.508;18.118;2023-02-24T05:33:52;24.70;37.30
23311;DHT22;11828;51.508;18.118;2023-02-24T05:36:20;24.60;36.70
23311;DHT22;11828;51.508;18.118;2023-02-24T05:38:49;24.70;36.70
23311;DHT22;11828;51.508;18.118;2023-02-24T05:41:24;24.70;36.60
23311;DHT22;11828;51.508;18.118;2023-02-24T05:43:58;24.70;36.70
23311;DHT22;11828;51.508;18.118;2023-02-24T05:46:31;24.80;36.60
23311;DHT22;11828;51.508;18.118;2023-02-24T05:49:04;24.80;36.50
23311;DHT22;11828;51.508;18.118;2023-02-24T05:51:37;24.90;36.50
23311;DHT22;11828;51.508;18.118;2023-02-24T05:54:11;24.80;36.40
23311;DHT22;11828;51.508;18.118;2023-02-24T05:56:39;24.90;36.40
23311;DHT22;11828;51.508;18.118;2023-02-24T05:59:11;24.80;36.40
23311;DHT22;11828;51.508;18.118;2023-02-24T06:01:39;24.80;36.60
23311;DHT22;11828;51.508;18.118;2023-02-24T06:04:08;24.70;36.70
23311;DHT22;11828;51.508;18.118;2023-02-24T06:06:39;24.80;36.80
23311;DHT22;11828;51.508;18.118;2023-02-24T06:09:10;24.70;36.70
23311;DHT22;11828;51.508;18.118;2023-02-24T06:11:38;24.60;36.80
23311;DHT22;11828;51.508;18.118;2023-02-24T06:14:06;24.70;37.00
23311;DHT22;11828;51.508;18.118;2023-02-24T06:16:34;24.60;36.90
23311;DHT22;11828;51.508;18.118;2023-02-24T06:19:02;24.70;37.00
23311;DHT22;11828;51.508;18.118;2023-02-24T06:21:29;24.60;36.90
23311;DHT22;11828;51.508;18.118;2023-02-24T06:23:57;24.60;37.10
23311;DHT22;11828;51.508;18.118;2023-02-24T06:26:25;24.50;37.10
23311;DHT22;11828;51.508;18.118;2023-02-24T06:28:56;24.50;37.20
23311;DHT22;11828;51.508;18.118;2023-02-24T06:31:26;24.50;37.10
23311;DHT22;11828;51.508;18.118;2023-02-24T06:33:53;24.50;37.30
23311;DHT22;11828;51.508;18.118;2023-02-24T06:36:21;24.40;37.30
23311;DHT22;11828;51.508;18.118;2023-02-24T06:38:48;24.40;37.30
23311;DHT22;11828;51.508;18.118;2023-02-24T06:41:14;24.40;37.30
23311;DHT22;11828;51.508;18.118;2023-02-24T06:43:43;24.40;37.50
23311;DHT22;11828;51.508;18.118;2023-02-24T06:46:14;24.40;37.40
23311;DHT22;11828;51.508;18.118;2023-02-24T06:48:41;24.40;37.40
23311;DHT22;11828;51.508;18.118;2023-02-24T06:51:12;24.50;37.50
23311;DHT22;11828;51.508;18.118;2023-02-24T06:53:41;24.60;37.30
23311;DHT22;11828;51.508;18.118;2023-02-24T06:56:12;24.60;37.20
23311;DHT22;11828;51.508;18.118;2023-02-24T06:58:45;24.80;37.10
23311;DHT22;11828;51.508;18.118;2023-02-24T07:01:23;24.80;36.80
23311;DHT22;11828;51.508;18.118;2023-02-24T07:03:56;24.90;36.80
23311;DHT22;11828;51.508;18.118;2023-02-24T07:06:34;25.00;36.60
23311;DHT22;11828;51.508;18.118;2023-02-24T07:09:04;25.10;36.40
23311;DHT22;11828;51.508;18.118;2023-02-24T07:11:33;25.20;36.60
23311;DHT22;11828;51.508;18.118;2023-02-24T07:14:00;25.30;36.40
23311;DHT22;11828;51.508;18.118;2023-02-24T07:16:27;25.30;36.30
23311;DHT22;11828;51.508;18.118;2023-02-24T07:18:55;25.30;36.30
23311;DHT22;11828;51.508;18.118;2023-02-24T07:21:24;25.40;36.20
23311;DHT22;11828;51.508;18.118;2023-02-24T07:23:52;25.40;36.20
23311;DHT22;11828;51.508;18.118;2023-02-24T07:26:24;25.40;36.00
23311;DHT22;11828;51.508;18.118;2023-02-24T07:28:52;25.30;35.70
23311;DHT22;11828;51.508;18.118;2023-02-24T07:31:22;25.30;36.40
23311;DHT22;11828;51.508;18.118;2023-02-24T07:33:55;25.30;35.70
23311;DHT22;11828;51.508;18.118;2023-02-24T07:36:27;25.30;35.80
23311;DHT22;11828;51.508;18.118;2023-02-24T07:39:05;25.30;35.80
23311;DHT22;11828;51.508;18.118;2023-02-24T07:41:34;25.30;35.50
23311;DHT22;11828;51.508;18.118;2023-02-24T07:44:02;25.30;35.60
23311;DHT22;11828;51.508;18.118;2023-02-24T07:46:28;25.20;35.50
23311;DHT22;11828;51.508;18.118;2023-02-24T07:48:55;25.20;35.60
23311;DHT22;11828;51.508;18.118;2023-02-24T07:51:25;25.10;35.60
23311;DHT22;11828;51.508;18.118;2023-02-24T07:53:56;25.10;35.50
23311;DHT22;11828;51.508;18.118;2023-02-24T07:56:25;25.10;35.30
23311;DHT22;11828;51.508;18.118;2023-02-24T07:58:58;25.00;35.20
23311;DHT22;11828;51.508;18.118;2023-02-24T08:01:28;25.00;35.40
23311;DHT22;11828;51.508;18.118;2023-02-24T08:04:03;25.10;35.50
23311;DHT22;11828;51.508;18.118;2023-02-24T08:06:38;25.00;35.30
23311;DHT22;11828;51.508;18.118;2023-02-24T08:09:11;25.10;35.20
23311;DHT22;11828;51.508;18.118;2023-02-24T08:11:44;25.10;35.10
23311;DHT22;11828;51.508;18.118;2023-02-24T08:14:18;25.20;35.10
23311;DHT22;11828;51.508;18.118;2023-02-24T08:16:53;25.30;35.10
23311;DHT22;11828;51.508;18.118;2023-02-24T08:19:26;25.30;34.90
23311;DHT22;11828;51.508;18.118;2023-02-24T08:22:06;25.30;34.90
23311;DHT22;11828;51.508;18.118;2023-02-24T08:24:57;25.30;34.90
23311;DHT22;11828;51.508;18.118;2023-02-24T08:27:32;25.30;34.80
23311;DHT22;11828;51.508;18.118;2023-02-24T08:30:05;25.40;34.80
23311;DHT22;11828;51.508;18.118;2023-02-24T08:32:40;25.40;34.40
23311;DHT22;11828;51.508;18.118;2023-02-24T08:35:13;25.40;35.00
23311;DHT22;11828;51.508;18.118;2023-02-24T08:37:51;25.30;34.10
23311;DHT22;11828;51.508;18.118;2023-02-24T08:43:10;25.20;34.30
23311;DHT22;11828;51.508;18.118;2023-02-24T08:48:53;25.30;33.80
23311;DHT22;11828;51.508;18.118;2023-02-24T08:51:28;25.40;33.80
23311;DHT22;11828;51.508;18.118;2023-02-24T08:54:10;25.30;34.00
23311;DHT22;11828;51.508;18.118;2023-02-24T08:56:47;25.40;33.70
23311;DHT22;11828;51.508;18.118;2023-02-24T08:59:16;25.40;33.60
23311;DHT22;11828;51.508;18.118;2023-02-24T09:02:19;25.50;33.70
23311;DHT22;11828;51.508;18.118;2023-02-24T09:05:00;25.60;33.50
23311;DHT22;11828;51.508;18.118;2023-02-24T09:07:37;25.70;33.00
23311;DHT22;11828;51.508;18.118;2023-02-24T09:10:17;25.70;33.00
23311;DHT22;11828;51.508;18.118;2023-02-24T09:12:43;25.60;32.70
23311;DHT22;11828;51.508;18.118;2023-02-24T09:15:11;25.60;32.70
23311;DHT22;11828;51.508;18.118;2023-02-24T09:17:42;25.60;33.10
23311;DHT22;11828;51.508;18.118;2023-02-24T09:20:12;25.60;33.10
23311;DHT22;11828;51.508;18.118;2023-02-24T09:23:11;25.70;32.90
23311;DHT22;11828;51.508;18.118;2023-02-24T09:25:45;25.70;32.30
23311;DHT22;11828;51.508;18.118;2023-02-24T09:28:21;25.60;32.10
23311;DHT22;11828;51.508;18.118;2023-02-24T09:30:54;25.60;32.40
23311;DHT22;11828;51.508;18.118;2023-02-24T09:35:58;25.60;32.60
23311;DHT22;11828;51.508;18.118;2023-02-24T09:38:37;25.70;32.40
23311;DHT22;11828;51.508;18.118;2023-02-24T09:44:29;25.70;32.60
23311;DHT22;11828;51.508;18.118;2023-02-24T09:47:19;25.70;31.40
23311;DHT22;11828;51.508;18.118;2023-02-24T09:52:53;25.60;31.50
23311;DHT22;11828;51.508;18.118;2023-02-24T09:55:41;25.60;31.70
23311;DHT22;11828;51.508;18.118;2023-02-24T10:04:00;25.60;31.80
23311;DHT22;11828;51.508;18.118;2023-02-24T10:06:49;25.80;32.10
23311;DHT22;11828;51.508;18.118;2023-02-24T10:11:53;26.20;31.50
23311;DHT22;11828;51.508;18.118;2023-02-24T10:18:19;26.20;30.80
23311;DHT22;11828;51.508;18.118;2023-02-24T10:26:51;26.10;30.40
23311;DHT22;11828;51.508;18.118;2023-02-24T10:29:30;25.90;30.30
23311;DHT22;11828;51.508;18.118;2023-02-24T10:32:30;25.80;30.60
23311;DHT22;11828;51.508;18.118;2023-02-24T10:35:02;25.70;30.60
23311;DHT22;11828;51.508;18.118;2023-02-24T10:37:30;25.60;30.60
23311;DHT22;11828;51.508;18.118;2023-02-24T10:40:02;25.60;30.80
23311;DHT22;11828;51.508;18.118;2023-02-24T10:42:39;25.50;31.10
23311;DHT22;11828;51.508;18.118;2023-02-24T10:45:20;25.50;31.00
23311;DHT22;11828;51.508;18.118;2023-02-24T10:47:55;25.60;31.20
23311;DHT22;11828;51.508;18.118;2023-02-24T10:50:28;25.60;30.80
23311;DHT22;11828;51.508;18.118;2023-02-24T10:53:05;25.60;31.00
23311;DHT22;11828;51.508;18.118;2023-02-24T10:55:41;25.70;31.30
23311;DHT22;11828;51.508;18.118;2023-02-24T10:58:31;25.80;31.00
23311;DHT22;11828;51.508;18.118;2023-02-24T11:01:27;25.80;30.30
23311;DHT22;11828;51.508;18.118;2023-02-24T11:04:17;25.60;30.20
23311;DHT22;11828;51.508;18.118;2023-02-24T11:07:10;25.50;30.30
23311;DHT22;11828;51.508;18.118;2023-02-24T11:10:04;25.30;30.40
23311;DHT22;11828;51.508;18.118;2023-02-24T11:12:48;25.20;30.40
23311;DHT22;11828;51.508;18.118;2023-02-24T11:15:40;25.10;30.70
23311;DHT22;11828;51.508;18.118;2023-02-24T11:18:29;25.00;31.00
23311;DHT22;11828;51.508;18.118;2023-02-24T11:21:03;24.80;31.20
23311;DHT22;11828;51.508;18.118;2023-02-24T11:23:46;24.80;31.40
23311;DHT22;11828;51.508;18.118;2023-02-24T11:26:18;24.80;31.50
23311;DHT22;11828;51.508;18.118;2023-02-24T11:29:25;24.80;31.60
23311;DHT22;11828;51.508;18.118;2023-02-24T11:32:27;24.90;31.50
23311;DHT22;11828;51.508;18.118;2023-02-24T11:35:21;25.00;31.60
23311;DHT22;11828;51.508;18.118;2023-02-24T11:38:24;24.90;31.50
23311;DHT22;11828;51.508;18.118;2023-02-24T11:41:29;25.00;31.80
23311;DHT22;11828;51.508;18.118;2023-02-24T11:44:26;25.00;31.20
23311;DHT22;11828;51.508;18.118;2023-02-24T11:47:05;25.20;31.30
23311;DHT22;11828;51.508;18.118;2023-02-24T11:49:40;25.20;30.50
23311;DHT22;11828;51.508;18.118;2023-02-24T11:52:37;25.30;30.60
23311;DHT22;11828;51.508;18.118;2023-02-24T11:55:34;25.30;30.00
23311;DHT22;11828;51.508;18.118;2023-02-24T12:01:42;25.80;29.50
23311;DHT22;11828;51.508;18.118;2023-02-24T12:04:28;26.10;29.40
23311;DHT22;11828;51.508;18.118;2023-02-24T12:07:23;26.20;28.90
23311;DHT22;11828;51.508;18.118;2023-02-24T12:18:34;27.60;27.60
23311;DHT22;11828;51.508;18.118;2023-02-24T12:21:35;27.50;27.20
23311;DHT22;11828;51.508;18.118;2023-02-24T12:24:13;27.10;27.40
23311;DHT22;11828;51.508;18.118;2023-02-24T12:36:32;26.20;27.70
23311;DHT22;11828;51.508;18.118;2023-02-24T12:48:11;26.20;27.80
23311;DHT22;11828;51.508;18.118;2023-02-24T12:51:06;26.00;28.40
23311;DHT22;11828;51.508;18.118;2023-02-24T12:53:43;26.00;29.00
23311;DHT22;11828;51.508;18.118;2023-02-24T12:56:23;26.20;28.60
23311;DHT22;11828;51.508;18.118;2023-02-24T12:58:55;26.00;28.80
23311;DHT22;11828;51.508;18.118;2023-02-24T13:01:42;26.00;29.00
23311;DHT22;11828;51.508;18.118;2023-02-24T13:04:41;25.90;29.00
23311;DHT22;11828;51.508;18.118;2023-02-24T13:13:09;25.90;28.50
23311;DHT22;11828;51.508;18.118;2023-02-24T13:15:53;25.90;28.90
23311;DHT22;11828;51.508;18.118;2023-02-24T13:18:30;26.00;29.00
23311;DHT22;11828;51.508;18.118;2023-02-24T13:21:18;26.10;28.80
23311;DHT22;11828;51.508;18.118;2023-02-24T13:23:57;26.20;28.50
23311;DHT22;11828;51.508;18.118;2023-02-24T13:26:27;26.10;28.00
23311;DHT22;11828;51.508;18.118;2023-02-24T13:29:11;26.10;27.90
23311;DHT22;11828;51.508;18.118;2023-02-24T13:31:49;26.00;27.90
23311;DHT22;11828;51.508;18.118;2023-02-24T13:34:42;26.20;27.80
23311;DHT22;11828;51.508;18.118;2023-02-24T13:37:09;26.40;27.80
23311;DHT22;11828;51.508;18.118;2023-02-24T13:39:38;26.40;27.60
23311;DHT22;11828;51.508;18.118;2023-02-24T13:42:29;26.40;27.40
23311;DHT22;11828;51.508;18.118;2023-02-24T13:45:03;26.20;27.30
23311;DHT22;11828;51.508;18.118;2023-02-24T13:52:54;25.80;27.30
23311;DHT22;11828;51.508;18.118;2023-02-24T14:01:12;26.20;27.60
23311;DHT22;11828;51.508;18.118;2023-02-24T14:03:43;26.40;27.50
23311;DHT22;11828;51.508;18.118;2023-02-24T14:06:22;26.80;27.50
23311;DHT22;11828;51.508;18.118;2023-02-24T14:08:54;27.20;26.90
23311;DHT22;11828;51.508;18.118;2023-02-24T14:11:25;27.70;26.60
23311;DHT22;11828;51.508;18.118;2023-02-24T14:13:55;28.20;26.40
23311;DHT22;11828;51.508;18.118;2023-02-24T14:16:26;28.70;25.60
23311;DHT22;11828;51.508;18.118;2023-02-24T14:18:55;28.80;25.20
23311;DHT22;11828;51.508;18.118;2023-02-24T14:21:25;28.60;24.60
23311;DHT22;11828;51.508;18.118;2023-02-24T14:24:11;28.40;24.90
23311;DHT22;11828;51.508;18.118;2023-02-24T14:26:50;28.10;24.70
23311;DHT22;11828;51.508;18.118;2023-02-24T14:29:27;27.90;25.10
23311;DHT22;11828;51.508;18.118;2023-02-24T14:31:57;27.60;25.20
23311;DHT22;11828;51.508;18.118;2023-02-24T14:34:25;27.20;25.40
23311;DHT22;11828;51.508;18.118;2023-02-24T14:36:56;26.90;25.80
23311;DHT22;11828;51.508;18.118;2023-02-24T14:39:24;26.60;26.10
23311;DHT22;11828;51.508;18.118;2023-02-24T14:44:46;26.40;26.60
23311;DHT22;11828;51.508;18.118;2023-02-24T14:47:15;26.40;26.60
23311;DHT22;11828;51.508;18.118;2023-02-24T14:50:00;26.20;26.30
23311;DHT22;11828;51.508;18.118;2023-02-24T14:52:48;26.00;26.50
23311;DHT22;11828;51.508;18.118;2023-02-24T14:55:19;25.80;26.60
23311;DHT22;11828;51.508;18.118;2023-02-24T14:57:50;25.60;26.60
23311;DHT22;11828;51.508;18.118;2023-02-24T15:00:44;25.60;26.80
23311;DHT22;11828;51.508;18.118;2023-02-24T15:03:25;25.50;26.90
23311;DHT22;11828;51.508;18.118;2023-02-24T15:05:57;25.50;27.00
23311;DHT22;11828;51.508;18.118;2023-02-24T15:08:40;25.50;27.10
23311;DHT22;11828;51.508;18.118;2023-02-24T15:11:20;25.40;27.00
23311;DHT22;11828;51.508;18.118;2023-02-24T15:13:57;25.30;27.00
23311;DHT22;11828;51.508;18.118;2023-02-24T15:16:38;25.20;26.90
23311;DHT22;11828;51.508;18.118;2023-02-24T15:19:33;25.20;27.10
23311;DHT22;11828;51.508;18.118;2023-02-24T15:22:03;25.10;26.80
23311;DHT22;11828;51.508;18.118;2023-02-24T15:24:41;25.20;27.00
23311;DHT22;11828;51.508;18.118;2023-02-24T15:29:42;25.20;26.80
23311;DHT22;11828;51.508;18.118;2023-02-24T15:32:17;25.20;26.90
23311;DHT22;11828;51.508;18.118;2023-02-24T15:34:45;25.10;26.80
23311;DHT22;11828;51.508;18.118;2023-02-24T15:37:23;25.10;26.90
23311;DHT22;11828;51.508;18.118;2023-02-24T15:40:02;25.00;26.80
23311;DHT22;11828;51.508;18.118;2023-02-24T15:42:53;25.00;26.90
23311;DHT22;11828;51.508;18.118;2023-02-24T15:45:42;24.90;26.90
23311;DHT22;11828;51.508;18.118;2023-02-24T15:48:23;24.90;26.90
23311;DHT22;11828;51.508;18.118;2023-02-24T15:50:53;24.80;27.10
23311;DHT22;11828;51.508;18.118;2023-02-24T15:53:19;24.90;27.20
23311;DHT22;11828;51.508;18.118;2023-02-24T15:55:46;24.90;27.30
23311;DHT22;11828;51.508;18.118;2023-02-24T15:58:20;24.80;27.40
23311;DHT22;11828;51.508;18.118;2023-02-24T16:00:47;24.80;27.60
23311;DHT22;11828;51.508;18.118;2023-02-24T16:03:18;24.70;27.50
23311;DHT22;11828;51.508;18.118;2023-02-24T16:05:44;24.60;27.40
23311;DHT22;11828;51.508;18.118;2023-02-24T16:08:14;24.60;27.60
23311;DHT22;11828;51.508;18.118;2023-02-24T16:10:42;24.50;27.40
23311;DHT22;11828;51.508;18.118;2023-02-24T16:13:16;24.50;27.70
23311;DHT22;11828;51.508;18.118;2023-02-24T16:15:44;24.30;27.60
23311;DHT22;11828;51.508;18.118;2023-02-24T16:18:22;24.30;27.50
23311;DHT22;11828;51.508;18.118;2023-02-24T16:20:50;24.10;27.50
23311;DHT22;11828;51.508;18.118;2023-02-24T16:23:23;24.20;27.70
23311;DHT22;11828;51.508;18.118;2023-02-24T16:25:58;24.10;27.60
23311;DHT22;11828;51.508;18.118;2023-02-24T16:28:25;24.00;27.80
23311;DHT22;11828;51.508;18.118;2023-02-24T16:30:51;24.10;27.80
23311;DHT22;11828;51.508;18.118;2023-02-24T16:33:18;24.00;27.80
23311;DHT22;11828;51.508;18.118;2023-02-24T16:35:49;24.00;27.80
23311;DHT22;11828;51.508;18.118;2023-02-24T16:38:21;23.80;27.90
23311;DHT22;11828;51.508;18.118;2023-02-24T16:40:51;23.70;28.10
23311;DHT22;11828;51.508;18.118;2023-02-24T16:43:18;23.70;28.30
23311;DHT22;11828;51.508;18.118;2023-02-24T16:45:45;23.80;28.30
23311;DHT22;11828;51.508;18.118;2023-02-24T16:48:19;23.80;28.40
23311;DHT22;11828;51.508;18.118;2023-02-24T16:50:47;23.80;28.20
23311;DHT22;11828;51.508;18.118;2023-02-24T16:53:16;23.90;28.10
23311;DHT22;11828;51.508;18.118;2023-02-24T16:55:47;23.90;28.10
23311;DHT22;11828;51.508;18.118;2023-02-24T16:58:14;24.00;28.20
23311;DHT22;11828;51.508;18.118;2023-02-24T17:00:44;24.00;28.10
23311;DHT22;11828;51.508;18.118;2023-02-24T17:03:29;24.10;28.00
23311;DHT22;11828;51.508;18.118;2023-02-24T17:05:58;24.00;28.00
23311;DHT22;11828;51.508;18.118;2023-02-24T17:08:24;24.00;28.00
23311;DHT22;11828;51.508;18.118;2023-02-24T17:10:51;23.90;28.10
23311;DHT22;11828;51.508;18.118;2023-02-24T17:13:19;24.00;28.20
23311;DHT22;11828;51.508;18.118;2023-02-24T17:15:46;23.90;28.30
23311;DHT22;11828;51.508;18.118;2023-02-24T17:18:14;23.90;28.30
23311;DHT22;11828;51.508;18.118;2023-02-24T17:20:41;23.90;28.40
23311;DHT22;11828;51.508;18.118;2023-02-24T17:23:08;23.90;28.40
23311;DHT22;11828;51.508;18.118;2023-02-24T17:25:35;23.90;28.40
23311;DHT22;11828;51.508;18.118;2023-02-24T17:28:02;23.90;28.50
23311;DHT22;11828;51.508;18.118;2023-02-24T17:30:31;23.90;28.50
23311;DHT22;11828;51.508;18.118;2023-02-24T17:32:58;24.00;28.60
23311;DHT22;11828;51.508;18.118;2023-02-24T17:35:25;23.90;28.50
23311;DHT22;11828;51.508;18.118;2023-02-24T17:37:52;24.00;28.70
23311;DHT22;11828;51.508;18.118;2023-02-24T17:40:22;24.00;28.70
23311;DHT22;11828;51.508;18.118;2023-02-24T17:42:48;24.00;28.70
23311;DHT22;11828;51.508;18.118;2023-02-24T17:45:15;24.10;28.60
23311;DHT22;11828;51.508;18.118;2023-02-24T17:47:41;24.10;28.70
23311;DHT22;11828;51.508;18.118;2023-02-24T17:50:10;24.20;28.50
23311;DHT22;11828;51.508;18.118;2023-02-24T17:52:37;24.20;28.50
23311;DHT22;11828;51.508;18.118;2023-02-24T17:55:04;24.30;28.40
23311;DHT22;11828;51.508;18.118;2023-02-24T17:57:35;24.20;28.10
23311;DHT22;11828;51.508;18.118;2023-02-24T18:00:06;24.20;28.30